Latest Weather Observations for Moorabbin Airport

IDV60901

Issued at 8:41 am EST Saturday 7 May 2016 (issued every 10 minutes, with the page automatically refreshed every 10 minutes)

About weather observations | Map of Melbourne area stations | Latest observations for Melbourne area | Other Formats
Station Details ID: 086077 Name: MOORABBIN AIRPORT Lat: -37.98 Lon: 145.10 Height: 12.1 m
Data from the previous 72 hours. | See also: Recent months at Moorabbin Airport
Date/Time
EST
Tmp

°C
App
Tmp
°C
Dew
Point
°C
Rel
Hum
%
Delta-T

°C
Wind Press
QNH
hPa
Press
MSL
hPa
Rain
since
9 am
mm
Dir
 
Spd
km/h
Gust
km/h
Spd
kts
Gust
kts
07/08:30am 13.5 13.3 13.0 97 0.3 NE 6 7 3 4 1017.2 1017.2 0.0
07/08:00am 11.5 11.1 11.2 98 0.2 NE 4 6 2 3 1017.0 1017.0 0.0
07/07:30am 9.8 9.6 9.2 96 0.3 CALM 0 0 0 0 1016.7 1016.7 0.0
07/07:00am 9.5 8.9 8.9 96 0.3 NNE 2 6 1 3 1016.5 1016.5 0.0
07/06:30am 10.1 10.0 9.5 96 0.3 CALM 0 0 0 0 1016.4 1016.4 0.0
07/06:00am 10.5 9.2 9.9 96 0.3 N 7 9 4 5 1016.1 1016.1 0.0
07/05:30am 10.1 9.6 9.3 95 0.4 ENE 2 6 1 3 1016.0 1016.0 0.0
07/05:00am 10.3 10.2 9.5 95 0.4 CALM 0 0 0 0 1015.9 1015.9 0.0
07/04:30am 11.1 11.2 10.3 95 0.4 CALM 0 0 0 0 1015.5 1015.5 0.0
07/04:00am 10.8 9.7 10.0 95 0.4 SE 6 7 3 4 1015.3 1015.3 0.0
07/03:30am 10.7 10.3 9.8 94 0.5 ENE 2 6 1 3 1015.1 1015.1 0.0
07/03:00am 10.0 8.6 8.9 93 0.5 ENE 6 9 3 5 1015.2 1015.2 0.0
07/02:30am 11.2 11.3 10.3 94 0.5 CALM 0 0 0 0 1015.5 1015.5 0.0
07/02:00am 10.8 9.4 9.7 93 0.6 ENE 7 7 4 4 1015.6 1015.6 0.0
07/01:30am 11.0 9.6 9.6 91 0.7 ESE 7 9 4 5 1015.8 1015.8 0.0
07/01:00am 11.8 10.6 10.4 91 0.7 E 7 7 4 4 1016.2 1016.2 0.0
07/12:30am 11.7 11.7 9.9 89 0.9 CALM 0 0 0 0 1016.3 1016.3 0.0
07/12:00am 12.8 12.7 10.9 88 1.0 ENE 2 6 1 3 1016.5 1016.5 0.0
 
Date/Time
EST
Tmp

°C
App
Tmp
°C
Dew
Point
°C
Rel
Hum
%
Delta-T

°C
Wind Press
QNH
hPa
Press
MSL
hPa
Rain
since
9 am
mm
Dir
 
Spd
km/h
Gust
km/h
Spd
kts
Gust
kts
06/11:30pm 13.0 12.2 10.9 87 1.1 NNE 6 7 3 4 1016.5 1016.5 0.0
06/11:00pm 13.1 12.2 10.8 86 1.2 ESE 6 9 3 5 1016.5 1016.5 0.0
06/10:30pm 13.3 11.9 10.8 85 1.3 SE 9 13 5 7 1016.8 1016.8 0.0
06/10:00pm 13.9 12.3 11.4 85 1.3 ESE 11 15 6 8 1016.9 1016.9 0.0
06/09:30pm 13.7 12.4 11.2 85 1.3 ESE 9 13 5 7 1016.8 1016.8 0.0
06/09:00pm 13.7 11.5 10.9 83 1.5 ESE 13 13 7 7 1016.8 1016.8 0.0
06/08:30pm 14.2 12.5 11.2 82 1.6 ESE 11 13 6 7 1016.9 1016.9 0.0
06/08:00pm 14.5 12.8 11.1 80 1.8 ESE 11 15 6 8 1016.8 1016.8 0.0
06/07:30pm 15.0 13.3 11.2 78 2.0 SE 11 15 6 8 1016.7 1016.7 0.0
06/07:00pm 15.8 13.1 11.6 76 2.3 SE 17 20 9 11 1016.3 1016.3 0.0
06/06:30pm 16.2 13.5 11.6 74 2.5 SE 17 22 9 12 1015.8 1015.8 0.0
06/06:00pm 16.6 14.9 11.3 71 2.9 SE 11 15 6 8 1015.3 1015.3 0.0
06/05:30pm 17.8 16.7 12.0 69 3.2 S 9 13 5 7 1014.6 1014.6 0.0
06/05:00pm 18.6 16.8 12.1 66 3.6 SSW 13 17 7 9 1014.3 1014.3 0.0
06/04:30pm 19.2 17.0 12.0 63 4.0 SSW 15 20 8 11 1014.1 1014.1 0.0
06/04:00pm 19.9 17.2 11.7 59 4.5 SW 17 22 9 12 1013.8 1013.8 0.0
06/03:30pm 22.0 18.5 10.8 49 6.2 NW 20 30 11 16 1013.4 1013.4 0.0
06/03:00pm 24.1 19.2 10.0 41 7.7 N 26 41 14 22 1013.0 1013.0 0.0
06/02:30pm 24.1 18.9 10.4 42 7.6 NNW 28 35 15 19 1013.1 1013.1 0.0
06/02:00pm 23.8 18.1 9.8 41 7.6 N 30 39 16 21 1013.1 1013.1 0.0
06/01:30pm 23.9 18.3 10.2 42 7.5 N 30 39 16 21 1013.3 1013.3 0.0
06/01:00pm 23.8 18.6 10.1 42 7.5 NNW 28 37 15 20 1013.5 1013.5 0.0
06/12:30pm 23.1 17.9 10.2 44 7.1 N 28 35 15 19 1013.9 1013.9 0.0
06/12:00pm 22.8 17.9 9.9 44 7.0 NNW 26 37 14 20 1014.3 1014.3 0.0
06/11:30am 22.6 17.2 9.4 43 7.1 NNW 28 39 15 21 1014.6 1014.6 0.0
06/11:00am 22.3 16.5 9.5 44 6.9 NNW 30 44 16 24 1014.5 1014.5 0.0
06/10:30am 21.4 15.2 9.9 48 6.2 N 33 46 18 25 1014.0 1014.0 0.0
06/10:00am 20.7 14.1 9.9 50 5.8 N 35 50 19 27 1014.0 1014.0 0.0
06/09:30am 19.7 13.0 9.6 52 5.4 N 35 48 19 26 1014.3 1014.3 0.0
06/09:00am 19.0 12.9 9.8 55 4.9 N 32 43 17 23 1014.4 1014.4 0.0
06/08:30am 18.2 13.2 9.5 57 4.6 N 26 35 14 19 1014.5 1014.5 0.0
06/08:00am 17.3 11.8 9.2 59 4.2 N 28 33 15 18 1014.2 1014.2 0.0
06/07:30am 16.7 12.0 9.1 61 3.9 N 24 30 13 16 1013.8 1013.8 0.0
06/07:00am 16.6 11.1 9.1 61 3.9 N 28 39 15 21 1013.7 1013.7 0.0
06/06:30am 16.3 10.4 9.0 62 3.8 N 30 35 16 19 1013.4 1013.4 0.0
06/06:00am 15.8 10.6 8.8 63 3.6 N 26 32 14 17 1013.2 1013.2 0.0
06/05:30am 15.7 10.5 8.7 63 3.6 N 26 35 14 19 1013.3 1013.3 0.0
06/05:00am 15.7 10.1 8.7 63 3.6 N 28 35 15 19 1013.0 1013.0 0.0
06/04:30am 15.2 10.8 8.9 66 3.2 N 22 28 12 15 1013.0 1013.0 0.0
06/04:00am 14.5 10.9 8.2 66 3.2 N 17 20 9 11 1013.2 1013.2 0.0
06/03:30am 15.2 12.0 8.4 64 3.4 N 15 20 8 11 1013.2 1013.2 0.0
06/03:00am 15.6 11.7 8.6 63 3.6 N 19 24 10 13 1013.3 1013.3 0.0
06/02:30am 15.7 11.5 8.4 62 3.7 N 20 24 11 13 1013.4 1013.4 0.0
06/02:00am 16.0 11.9 8.5 61 3.8 N 20 28 11 15 1013.4 1013.4 0.0
06/01:30am 16.0 12.1 8.5 61 3.8 NNW 19 24 10 13 1013.4 1013.4 0.0
06/01:00am 16.3 12.4 8.5 60 4.0 NNW 19 22 10 12 1013.3 1013.3 0.0
06/12:30am 16.5 12.9 8.2 58 4.2 NNW 17 24 9 13 1013.2 1013.2 0.0
06/12:00am 17.1 13.5 8.5 57 4.4 N 17 26 9 14 1013.3 1013.3 0.0
 
Date/Time
EST
Tmp

°C
App
Tmp
°C
Dew
Point
°C
Rel
Hum
%
Delta-T

°C
Wind Press
QNH
hPa
Press
MSL
hPa
Rain
since
9 am
mm
Dir
 
Spd
km/h
Gust
km/h
Spd
kts
Gust
kts
05/11:30pm 17.3 12.8 8.7 57 4.4 N 22 30 12 16 1013.2 1013.2 0.0
05/11:00pm 17.5 12.3 8.9 57 4.5 N 26 33 14 18 1013.2 1013.2 0.0
05/10:30pm 17.7 12.5 8.8 56 4.6 N 26 37 14 20 1013.2 1013.2 0.0
05/10:00pm 17.5 13.1 8.9 57 4.5 N 22 30 12 16 1013.5 1013.5 0.0
05/09:30pm 17.5 13.7 9.2 58 4.3 N 19 26 10 14 1013.6 1013.6 0.0
05/09:00pm 17.7 12.6 9.1 57 4.5 N 26 33 14 18 1013.4 1013.4 0.0
05/08:30pm 17.7 12.2 9.3 58 4.4 N 28 35 15 19 1013.4 1013.4 0.0
05/08:00pm 17.8 12.8 9.4 58 4.4 N 26 33 14 18 1013.3 1013.3 0.0
05/07:30pm 17.7 13.0 9.3 58 4.4 N 24 32 13 17 1013.3 1013.3 0.0
05/07:00pm 17.9 12.9 9.5 58 4.4 N 26 33 14 18 1013.1 1013.1 0.0
05/06:30pm 18.4 13.4 9.5 56 4.7 N 26 35 14 19 1012.9 1012.9 0.0
05/06:00pm 18.9 13.2 9.7 55 4.9 N 30 43 16 23 1012.6 1012.6 0.0
05/05:30pm 19.2 13.0 9.9 55 5.0 N 33 46 18 25 1012.4 1012.4 0.0
05/05:00pm 19.4 13.8 10.1 55 5.0 N 30 43 16 23 1012.3 1012.3 0.0
05/04:30pm 19.7 13.5 10.1 54 5.2 N 33 50 18 27 1012.2 1012.2 0.0
05/04:01pm 20.0 14.4 10.1 53 5.3 N 30 48 16 26 1012.6 1012.6 0.0
05/04:00pm 20.1 14.1 10.2 53 5.3 N 32 48 17 26 1012.5 1012.5 0.0
05/03:47pm 19.9 13.2 9.8 52 5.4 N 35 54 19 29 1012.3 1012.3 0.0
05/03:30pm 20.3 13.7 10.1 52 5.5 N 35 50 19 27 1012.4 1012.4 0.0
05/03:04pm 19.9 12.5 9.8 52 5.4 N 39 57 21 31 1012.3 1012.3 0.0
05/03:00pm 20.0 13.4 9.9 52 5.4 N 35 52 19 28 1012.4 1012.4 0.0
05/02:30pm 20.1 12.7 9.9 52 5.5 N 39 57 21 31 1012.5 1012.5 0.0
05/02:07pm 20.4 13.5 10.2 52 5.5 N 37 56 20 30 1012.7 1012.7 0.0
05/02:00pm 20.2 12.8 10.0 52 5.5 N 39 54 21 29 1012.8 1012.8 0.0
05/01:30pm 20.1 12.2 9.4 50 5.7 NNW 41 61 22 33 1013.0 1013.0 0.0
05/01:00pm 20.3 12.7 9.2 49 5.9 NNW 39 57 21 31 1013.2 1013.2 0.0
05/12:36pm 20.3 12.4 9.2 49 5.9 NNW 41 59 22 32 1013.6 1013.6 0.0
05/12:30pm 20.2 11.9 9.2 49 5.8 NNW 43 59 23 32 1013.6 1013.6 0.0
05/12:08pm 20.2 12.6 9.2 49 5.8 N 39 57 21 31 1014.0 1014.0 0.0
05/12:00pm 20.2 13.4 9.2 49 5.8 NNW 35 52 19 28 1014.1 1014.1 0.0
05/11:47am 20.0 13.6 8.7 48 5.9 N 32 50 17 27 1014.3 1014.3 0.0
05/11:30am 19.7 13.2 9.0 50 5.6 NNW 33 46 18 25 1014.7 1014.7 0.0
05/11:03am 18.9 12.6 9.1 53 5.1 N 32 50 17 27 1015.4 1015.4 0.0
05/11:00am 19.0 12.6 9.2 53 5.1 N 33 46 18 25 1015.5 1015.5 0.0
05/10:30am 18.1 11.2 8.9 55 4.8 N 35 50 19 27 1015.7 1015.7 0.0
05/10:11am 17.1 11.4 8.5 57 4.4 N 28 50 15 27 1016.1 1016.1 0.0
05/10:00am 16.9 12.0 8.6 58 4.2 N 24 32 13 17 1016.3 1016.3 0.0
05/09:30am 16.6 10.9 8.3 58 4.2 N 28 39 15 21 1016.5 1016.5 0.0
05/09:00am 15.7 11.5 8.2 61 3.8 NNE 20 28 11 15 1016.6 1016.6 0.0
05/08:30am 15.5 10.5 8.0 61 3.8 N 24 32 13 17 1016.4 1016.4 0.0
05/08:00am 15.0 10.7 7.8 62 3.6 N 20 26 11 14 1016.4 1016.4 0.0
05/07:30am 14.6 10.2 7.4 62 3.5 N 20 28 11 15 1016.2 1016.2 0.0
05/07:00am 15.1 9.9 7.4 60 3.8 N 24 30 13 16 1016.0 1016.0 0.0
05/06:30am 15.2 9.6 7.0 58 4.0 N 26 39 14 21 1015.9 1015.9 0.0
05/06:00am 15.0 9.1 7.3 60 3.8 N 28 37 15 20 1015.8 1015.8 0.0
05/05:30am 14.9 9.0 7.5 61 3.7 N 28 37 15 20 1015.7 1015.7 0.0
05/05:00am 14.3 8.8 7.6 64 3.3 N 26 35 14 19 1015.4 1015.4 0.0
05/04:30am 14.1 9.0 7.6 65 3.2 N 24 32 13 17 1015.6 1015.6 0.0
05/04:00am 13.8 8.7 7.6 66 3.0 N 24 30 13 16 1015.7 1015.7 0.0
05/03:30am 14.2 9.4 7.5 64 3.3 N 22 30 12 16 1015.9 1015.9 0.0
05/03:00am 13.7 9.3 7.2 65 3.2 N 20 28 11 15 1016.0 1016.0 0.0
05/02:30am 13.7 9.2 7.0 64 3.3 NNW 20 26 11 14 1016.3 1016.3 0.0
05/02:00am 13.9 9.5 7.2 64 3.3 N 20 26 11 14 1016.2 1016.2 0.0
05/01:30am 14.0 9.5 7.1 63 3.4 N 20 28 11 15 1016.3 1016.3 0.0
05/01:00am 13.7 10.1 6.8 63 3.3 N 15 20 8 11 1016.4 1016.4 0.0
05/12:30am 13.9 9.9 6.7 62 3.5 N 17 22 9 12 1016.4 1016.4 0.0
05/12:00am 14.9 10.0 6.7 58 4.0 N 22 32 12 17 1016.4 1016.4 0.0
 
Date/Time
EST
Tmp

°C
App
Tmp
°C
Dew
Point
°C
Rel
Hum
%
Delta-T

°C
Wind Press
QNH
hPa
Press
MSL
hPa
Rain
since
9 am
mm
Dir
 
Spd
km/h
Gust
km/h
Spd
kts
Gust
kts
04/11:30pm 15.0 9.3 6.8 58 4.0 N 26 35 14 19 1016.3 1016.3 0.0
04/11:00pm 15.1 9.5 7.2 59 3.9 N 26 35 14 19 1016.3 1016.3 0.0
04/10:30pm 15.0 9.8 7.1 59 3.9 N 24 32 13 17 1016.6 1016.6 0.0
04/10:00pm 15.2 9.5 6.7 57 4.1 N 26 35 14 19 1016.6 1016.6 0.0
04/09:30pm 15.2 10.3 6.7 57 4.1 N 22 30 12 16 1016.7 1016.7 0.0
04/09:00pm 15.1 9.7 6.4 56 4.2 N 24 33 13 18 1016.6 1016.6 0.0
04/08:30pm 14.8 10.2 6.4 57 4.1 N 20 30 11 16 1016.4 1016.4 0.0
04/08:00pm 15.1 9.6 6.1 55 4.3 N 24 33 13 18 1016.1 1016.1 0.0
04/07:30pm 15.3 9.5 6.1 54 4.4 N 26 33 14 18 1016.0 1016.0 0.0
04/07:00pm 15.1 9.7 6.4 56 4.2 N 24 35 13 19 1015.7 1015.7 0.0
04/06:30pm 15.2 9.4 6.2 55 4.3 N 26 39 14 21 1015.4 1015.4 0.0
04/06:00pm 15.6 10.5 6.1 53 4.6 N 22 30 12 16 1015.1 1015.1 0.0
04/05:30pm 15.9 10.3 5.5 50 5.0 N 24 37 13 20 1014.8 1014.8 0.0
04/05:00pm 16.2 11.3 5.2 48 5.2 NNW 20 28 11 15 1014.5 1014.5 0.0
04/04:30pm 16.0 10.7 5.0 48 5.2 NNW 22 28 12 15 1014.3 1014.3 0.0
04/04:00pm 16.6 10.8 4.6 45 5.7 NNW 24 33 13 18 1014.3 1014.3 0.0
04/03:30pm 16.7 11.3 4.7 45 5.7 NNW 22 33 12 18 1014.2 1014.2 0.0
04/03:00pm 16.6 11.2 4.6 45 5.7 NNW 22 32 12 17 1014.1 1014.1 0.0
04/02:30pm 16.7 11.2 4.1 43 5.9 NW 22 32 12 17 1014.0 1014.0 0.0
04/02:00pm 17.4 11.7 4.7 43 6.0 NW 24 32 13 17 1014.0 1014.0 0.0
04/01:30pm 17.4 12.1 5.0 44 5.9 WNW 22 33 12 18 1014.1 1014.1 0.0
04/01:00pm 16.5 10.6 3.9 43 5.9 NW 24 33 13 18 1014.2 1014.2 0.0
04/12:30pm 16.5 11.5 4.5 45 5.6 WNW 20 28 11 15 1014.6 1014.6 0.0
04/12:00pm 16.3 11.3 4.7 46 5.5 NW 20 32 11 17 1015.0 1015.0 0.0
04/11:30am 16.0 11.2 5.6 50 5.0 NW 20 32 11 17 1015.2 1015.2 0.0
04/11:00am 15.1 9.5 5.3 52 4.6 NNW 24 37 13 20 1015.2 1015.2 0.0
04/10:30am 15.0 10.4 6.3 56 4.2 NW 20 28 11 15 1015.2 1015.2 0.0
04/10:00am 14.2 9.1 5.8 57 4.0 NW 22 32 12 17 1015.4 1015.4 0.0
04/09:30am 13.4 8.7 6.0 61 3.5 NNW 20 30 11 16 1015.4 1015.4 0.0
04/09:00am 12.5 7.9 5.7 63 3.2 NNW 19 26 10 14 1015.2 1015.2 5.0

Latest Capital City Observations: Canberra | Sydney | Melbourne | Brisbane | Adelaide | Perth | Hobart | Darwin

Other Formats:

Comma delimited format used in spreadsheet applications
http://www.bom.gov.au/fwo/IDV60901/IDV60901.94870.axf

JavaScript Object Notation format (JSON) in row-major order
http://www.bom.gov.au/fwo/IDV60901/IDV60901.94870.json